sensor_id;sensor_type;location;lat;lon;timestamp;pressure;altitude;pressure_sealevel;temperature;humidity
13029;BME280;6581;42.662;23.402;2023-07-22T00:01:02;95228.97;;;26.74;54.43
13029;BME280;6581;42.662;23.402;2023-07-22T00:03:29;95233.25;;;26.66;54.97
13029;BME280;6581;42.662;23.402;2023-07-22T00:06:03;95236.88;;;26.63;54.95
13029;BME280;6581;42.662;23.402;2023-07-22T00:08:31;95237.16;;;26.65;54.99
13029;BME280;6581;42.662;23.402;2023-07-22T00:10:58;95243.81;;;26.64;55.04
13029;BME280;6581;42.662;23.402;2023-07-22T00:13:27;95252.91;;;26.61;55.83
13029;BME280;6581;42.662;23.402;2023-07-22T00:15:54;95252.47;;;26.54;56.09
13029;BME280;6581;42.662;23.402;2023-07-22T00:18:22;95266.22;;;26.50;56.51
13029;BME280;6581;42.662;23.402;2023-07-22T00:20:50;95258.75;;;26.36;57.14
13029;BME280;6581;42.662;23.402;2023-07-22T00:23:17;95262.09;;;26.31;57.30
13029;BME280;6581;42.662;23.402;2023-07-22T00:25:45;95254.75;;;26.22;58.44
13029;BME280;6581;42.662;23.402;2023-07-22T00:28:12;95252.72;;;25.99;60.14
13029;BME280;6581;42.662;23.402;2023-07-22T00:30:41;95256.34;;;25.96;60.97
13029;BME280;6581;42.662;23.402;2023-07-22T00:33:09;95252.88;;;25.95;61.08
13029;BME280;6581;42.662;23.402;2023-07-22T00:35:36;95267.53;;;25.89;61.67
13029;BME280;6581;42.662;23.402;2023-07-22T00:38:03;95253.34;;;25.85;62.38
13029;BME280;6581;42.662;23.402;2023-07-22T00:40:31;95256.69;;;25.89;62.81
13029;BME280;6581;42.662;23.402;2023-07-22T00:43:00;95251.41;;;25.85;63.29
13029;BME280;6581;42.662;23.402;2023-07-22T00:45:27;95258.81;;;25.76;64.13
13029;BME280;6581;42.662;23.402;2023-07-22T00:47:56;95254.47;;;25.69;64.52
13029;BME280;6581;42.662;23.402;2023-07-22T00:50:24;95257.03;;;25.64;64.76
13029;BME280;6581;42.662;23.402;2023-07-22T00:52:52;95264.13;;;25.61;64.41
13029;BME280;6581;42.662;23.402;2023-07-22T00:55:20;95259.59;;;25.58;64.55
13029;BME280;6581;42.662;23.402;2023-07-22T00:57:47;95271.22;;;25.58;64.38
13029;BME280;6581;42.662;23.402;2023-07-22T01:00:15;95272.56;;;25.54;64.67
13029;BME280;6581;42.662;23.402;2023-07-22T01:02:42;95271.66;;;25.48;64.66
13029;BME280;6581;42.662;23.402;2023-07-22T01:05:11;95273.63;;;25.47;64.99
13029;BME280;6581;42.662;23.402;2023-07-22T01:07:39;95268.97;;;25.39;65.55
13029;BME280;6581;42.662;23.402;2023-07-22T01:10:07;95265.63;;;25.35;66.31
13029;BME280;6581;42.662;23.402;2023-07-22T01:12:35;95258.75;;;25.25;67.03
13029;BME280;6581;42.662;23.402;2023-07-22T01:15:03;95260.09;;;25.20;67.39
13029;BME280;6581;42.662;23.402;2023-07-22T01:17:33;95248.94;;;25.09;68.14
13029;BME280;6581;42.662;23.402;2023-07-22T01:20:01;95246.56;;;25.02;68.97
13029;BME280;6581;42.662;23.402;2023-07-22T01:22:32;95244.56;;;25.02;69.32
13029;BME280;6581;42.662;23.402;2023-07-22T01:25:00;95253.00;;;25.04;69.92
13029;BME280;6581;42.662;23.402;2023-07-22T01:27:28;95250.44;;;24.92;69.58
13029;BME280;6581;42.662;23.402;2023-07-22T01:29:55;95245.63;;;24.87;70.02
13029;BME280;6581;42.662;23.402;2023-07-22T01:32:23;95251.28;;;24.80;71.17
13029;BME280;6581;42.662;23.402;2023-07-22T01:34:50;95242.88;;;24.78;71.71
13029;BME280;6581;42.662;23.402;2023-07-22T01:37:18;95235.50;;;24.78;72.10
13029;BME280;6581;42.662;23.402;2023-07-22T01:39:45;95226.31;;;24.76;72.75
13029;BME280;6581;42.662;23.402;2023-07-22T01:42:14;95234.44;;;24.76;72.82
13029;BME280;6581;42.662;23.402;2023-07-22T01:44:41;95231.13;;;24.71;72.82
13029;BME280;6581;42.662;23.402;2023-07-22T01:47:08;95241.81;;;24.66;72.28
13029;BME280;6581;42.662;23.402;2023-07-22T01:49:35;95243.03;;;24.65;71.99
13029;BME280;6581;42.662;23.402;2023-07-22T01:52:03;95235.50;;;24.60;72.32
13029;BME280;6581;42.662;23.402;2023-07-22T01:54:30;95236.53;;;24.53;72.59
13029;BME280;6581;42.662;23.402;2023-07-22T01:56:58;95226.44;;;24.54;72.98
13029;BME280;6581;42.662;23.402;2023-07-22T01:59:27;95227.34;;;24.51;73.08
13029;BME280;6581;42.662;23.402;2023-07-22T02:01:54;95226.59;;;24.41;73.83
13029;BME280;6581;42.662;23.402;2023-07-22T02:04:21;95231.97;;;24.32;74.58
13029;BME280;6581;42.662;23.402;2023-07-22T02:06:48;95225.97;;;24.28;75.57
13029;BME280;6581;42.662;23.402;2023-07-22T02:09:15;95221.59;;;24.31;75.42
13029;BME280;6581;42.662;23.402;2023-07-22T02:11:42;95214.97;;;24.22;75.69
13029;BME280;6581;42.662;23.402;2023-07-22T02:14:09;95216.72;;;24.16;75.71
13029;BME280;6581;42.662;23.402;2023-07-22T02:16:37;95221.22;;;24.10;75.85
13029;BME280;6581;42.662;23.402;2023-07-22T02:19:05;95223.28;;;24.06;76.22
13029;BME280;6581;42.662;23.402;2023-07-22T02:21:39;95226.44;;;24.05;77.08
13029;BME280;6581;42.662;23.402;2023-07-22T02:24:07;95230.34;;;24.04;77.14
13029;BME280;6581;42.662;23.402;2023-07-22T02:26:34;95233.97;;;24.01;77.58
13029;BME280;6581;42.662;23.402;2023-07-22T02:29:01;95226.41;;;23.96;77.75
13029;BME280;6581;42.662;23.402;2023-07-22T02:31:29;95226.84;;;23.94;76.93
13029;BME280;6581;42.662;23.402;2023-07-22T02:33:57;95228.03;;;23.93;77.11
13029;BME280;6581;42.662;23.402;2023-07-22T02:36:25;95227.91;;;23.88;78.34
13029;BME280;6581;42.662;23.402;2023-07-22T02:38:52;95234.03;;;23.88;78.35
13029;BME280;6581;42.662;23.402;2023-07-22T02:41:19;95238.50;;;23.73;80.70
13029;BME280;6581;42.662;23.402;2023-07-22T02:43:47;95237.91;;;23.78;79.43
13029;BME280;6581;42.662;23.402;2023-07-22T02:46:14;95238.97;;;23.80;78.63
13029;BME280;6581;42.662;23.402;2023-07-22T02:48:41;95242.25;;;23.75;78.91
13029;BME280;6581;42.662;23.402;2023-07-22T02:51:10;95246.13;;;23.74;78.58
13029;BME280;6581;42.662;23.402;2023-07-22T02:53:37;95234.13;;;23.75;78.82
13029;BME280;6581;42.662;23.402;2023-07-22T02:56:05;95242.25;;;23.75;78.99
13029;BME280;6581;42.662;23.402;2023-07-22T02:58:33;95235.59;;;23.67;79.43
13029;BME280;6581;42.662;23.402;2023-07-22T03:01:03;95237.22;;;23.65;80.16
13029;BME280;6581;42.662;23.402;2023-07-22T03:03:31;95240.06;;;23.61;80.84
13029;BME280;6581;42.662;23.402;2023-07-22T03:05:59;95248.63;;;23.60;80.65
13029;BME280;6581;42.662;23.402;2023-07-22T03:08:27;95252.06;;;23.60;80.57
13029;BME280;6581;42.662;23.402;2023-07-22T03:10:54;95252.41;;;23.62;80.74
13029;BME280;6581;42.662;23.402;2023-07-22T03:13:21;95246.50;;;23.55;81.38
13029;BME280;6581;42.662;23.402;2023-07-22T03:15:48;95246.03;;;23.56;81.43
13029;BME280;6581;42.662;23.402;2023-07-22T03:18:15;95249.50;;;23.57;81.41
13029;BME280;6581;42.662;23.402;2023-07-22T03:20:42;95243.91;;;23.51;81.86
13029;BME280;6581;42.662;23.402;2023-07-22T03:23:09;95239.41;;;23.48;82.26
13029;BME280;6581;42.662;23.402;2023-07-22T03:25:38;95241.03;;;23.46;82.52
13029;BME280;6581;42.662;23.402;2023-07-22T03:28:06;95249.16;;;23.46;82.31
13029;BME280;6581;42.662;23.402;2023-07-22T03:30:37;95246.00;;;23.47;82.35
13029;BME280;6581;42.662;23.402;2023-07-22T03:33:04;95247.06;;;23.50;82.15
13029;BME280;6581;42.662;23.402;2023-07-22T03:35:33;95254.63;;;23.55;81.91
13029;BME280;6581;42.662;23.402;2023-07-22T03:38:00;95255.66;;;23.57;81.82
13029;BME280;6581;42.662;23.402;2023-07-22T03:40:28;95265.16;;;23.62;82.31
13029;BME280;6581;42.662;23.402;2023-07-22T03:42:57;95266.53;;;23.66;82.08
13029;BME280;6581;42.662;23.402;2023-07-22T03:45:24;95275.41;;;23.67;83.33
13029;BME280;6581;42.662;23.402;2023-07-22T03:47:56;95272.84;;;23.63;83.71
13029;BME280;6581;42.662;23.402;2023-07-22T03:50:24;95271.00;;;23.60;83.18
13029;BME280;6581;42.662;23.402;2023-07-22T03:52:51;95278.16;;;23.76;82.27
13029;BME280;6581;42.662;23.402;2023-07-22T03:55:19;95276.84;;;23.80;82.10
13029;BME280;6581;42.662;23.402;2023-07-22T03:57:46;95290.69;;;23.82;81.87
13029;BME280;6581;42.662;23.402;2023-07-22T04:00:15;95288.28;;;23.84;82.89
13029;BME280;6581;42.662;23.402;2023-07-22T04:02:42;95289.22;;;23.91;83.39
13029;BME280;6581;42.662;23.402;2023-07-22T04:05:10;95294.97;;;24.02;82.88
13029;BME280;6581;42.662;23.402;2023-07-22T04:07:37;95297.25;;;24.03;83.13
13029;BME280;6581;42.662;23.402;2023-07-22T04:10:05;95292.09;;;23.96;81.54
13029;BME280;6581;42.662;23.402;2023-07-22T04:12:32;95298.84;;;23.92;82.08
13029;BME280;6581;42.662;23.402;2023-07-22T04:15:00;95295.88;;;23.99;81.77
13029;BME280;6581;42.662;23.402;2023-07-22T04:17:30;95300.22;;;23.96;81.54
13029;BME280;6581;42.662;23.402;2023-07-22T04:19:57;95302.00;;;23.90;82.33
13029;BME280;6581;42.662;23.402;2023-07-22T04:22:24;95293.03;;;24.02;82.38
13029;BME280;6581;42.662;23.402;2023-07-22T04:24:51;95295.16;;;24.07;81.98
13029;BME280;6581;42.662;23.402;2023-07-22T04:27:19;95290.97;;;24.15;82.40
13029;BME280;6581;42.662;23.402;2023-07-22T04:29:49;95298.09;;;24.22;82.04
13029;BME280;6581;42.662;23.402;2023-07-22T04:32:19;95304.13;;;24.26;81.00
13029;BME280;6581;42.662;23.402;2023-07-22T04:34:47;95309.28;;;24.33;81.07
13029;BME280;6581;42.662;23.402;2023-07-22T04:37:14;95307.81;;;24.41;80.22
13029;BME280;6581;42.662;23.402;2023-07-22T04:39:47;95316.09;;;24.47;78.36
13029;BME280;6581;42.662;23.402;2023-07-22T04:42:15;95319.59;;;24.56;77.30
13029;BME280;6581;42.662;23.402;2023-07-22T04:44:42;95314.19;;;24.65;77.00
13029;BME280;6581;42.662;23.402;2023-07-22T04:47:10;95317.97;;;24.68;78.48
13029;BME280;6581;42.662;23.402;2023-07-22T04:49:38;95315.44;;;24.83;78.40
13029;BME280;6581;42.662;23.402;2023-07-22T04:52:07;95315.91;;;24.90;76.79
13029;BME280;6581;42.662;23.402;2023-07-22T04:54:34;95311.88;;;24.95;76.73
13029;BME280;6581;42.662;23.402;2023-07-22T04:57:01;95304.66;;;25.01;75.36
13029;BME280;6581;42.662;23.402;2023-07-22T04:59:29;95308.88;;;25.11;74.58
13029;BME280;6581;42.662;23.402;2023-07-22T05:01:56;95312.47;;;25.08;73.61
13029;BME280;6581;42.662;23.402;2023-07-22T05:04:23;95313.84;;;25.12;72.52
13029;BME280;6581;42.662;23.402;2023-07-22T05:06:50;95316.09;;;25.14;72.67
13029;BME280;6581;42.662;23.402;2023-07-22T05:09:18;95330.72;;;25.26;75.27
13029;BME280;6581;42.662;23.402;2023-07-22T05:11:46;95323.63;;;25.19;76.43
13029;BME280;6581;42.662;23.402;2023-07-22T05:14:13;95326.50;;;25.15;75.49
13029;BME280;6581;42.662;23.402;2023-07-22T05:16:40;95328.00;;;25.26;74.75
13029;BME280;6581;42.662;23.402;2023-07-22T05:19:07;95329.97;;;25.16;73.98
13029;BME280;6581;42.662;23.402;2023-07-22T05:21:34;95334.00;;;25.11;74.32
13029;BME280;6581;42.662;23.402;2023-07-22T05:24:01;95332.06;;;25.30;73.98
13029;BME280;6581;42.662;23.402;2023-07-22T05:26:30;95336.13;;;25.44;73.53
13029;BME280;6581;42.662;23.402;2023-07-22T05:28:57;95330.41;;;25.24;73.50
13029;BME280;6581;42.662;23.402;2023-07-22T05:31:24;95327.25;;;25.25;74.16
13029;BME280;6581;42.662;23.402;2023-07-22T05:33:52;95333.56;;;25.40;74.60
13029;BME280;6581;42.662;23.402;2023-07-22T05:36:19;95336.47;;;25.55;74.81
13029;BME280;6581;42.662;23.402;2023-07-22T05:38:46;95336.13;;;25.71;74.52
13029;BME280;6581;42.662;23.402;2023-07-22T05:41:13;95339.31;;;25.70;74.20
13029;BME280;6581;42.662;23.402;2023-07-22T05:43:41;95343.06;;;25.81;73.47
13029;BME280;6581;42.662;23.402;2023-07-22T05:46:08;95343.06;;;25.81;72.05
13029;BME280;6581;42.662;23.402;2023-07-22T05:48:35;95336.28;;;25.86;72.26
13029;BME280;6581;42.662;23.402;2023-07-22T05:51:02;95341.41;;;25.93;72.79
13029;BME280;6581;42.662;23.402;2023-07-22T05:53:29;95345.44;;;26.07;71.90
13029;BME280;6581;42.662;23.402;2023-07-22T05:55:56;95342.72;;;26.07;71.68
13029;BME280;6581;42.662;23.402;2023-07-22T05:58:23;95343.59;;;26.13;70.81
13029;BME280;6581;42.662;23.402;2023-07-22T06:00:53;95342.00;;;25.97;71.03
13029;BME280;6581;42.662;23.402;2023-07-22T06:03:21;95340.63;;;26.01;70.39
13029;BME280;6581;42.662;23.402;2023-07-22T06:05:48;95341.63;;;26.13;69.69
13029;BME280;6581;42.662;23.402;2023-07-22T06:08:15;95348.72;;;26.20;69.65
13029;BME280;6581;42.662;23.402;2023-07-22T06:10:43;95355.06;;;26.26;69.63
13029;BME280;6581;42.662;23.402;2023-07-22T06:13:11;95349.91;;;26.19;68.86
13029;BME280;6581;42.662;23.402;2023-07-22T06:15:39;95362.88;;;26.33;68.36
13029;BME280;6581;42.662;23.402;2023-07-22T06:18:08;95375.13;;;26.28;68.39
13029;BME280;6581;42.662;23.402;2023-07-22T06:20:35;95370.59;;;26.25;67.82
13029;BME280;6581;42.662;23.402;2023-07-22T06:23:02;95374.78;;;26.35;68.37
13029;BME280;6581;42.662;23.402;2023-07-22T06:25:30;95377.22;;;26.33;69.38
13029;BME280;6581;42.662;23.402;2023-07-22T06:27:57;95383.97;;;26.47;69.72
13029;BME280;6581;42.662;23.402;2023-07-22T06:30:24;95383.38;;;26.43;67.23
13029;BME280;6581;42.662;23.402;2023-07-22T06:32:52;95385.31;;;26.52;66.91
13029;BME280;6581;42.662;23.402;2023-07-22T06:35:20;95383.25;;;26.70;66.03
13029;BME280;6581;42.662;23.402;2023-07-22T06:37:47;95385.81;;;26.74;66.63
13029;BME280;6581;42.662;23.402;2023-07-22T06:40:14;95391.63;;;26.90;65.15
13029;BME280;6581;42.662;23.402;2023-07-22T06:42:41;95390.72;;;26.94;65.50
13029;BME280;6581;42.662;23.402;2023-07-22T06:45:08;95401.84;;;27.05;66.03
13029;BME280;6581;42.662;23.402;2023-07-22T06:47:36;95402.13;;;27.07;64.12
13029;BME280;6581;42.662;23.402;2023-07-22T06:50:04;95402.53;;;27.14;63.18
13029;BME280;6581;42.662;23.402;2023-07-22T06:52:33;95391.72;;;27.29;63.10
13029;BME280;6581;42.662;23.402;2023-07-22T06:55:00;95396.91;;;27.42;63.09
13029;BME280;6581;42.662;23.402;2023-07-22T06:57:29;95389.28;;;27.55;63.23
13029;BME280;6581;42.662;23.402;2023-07-22T06:59:56;95386.78;;;27.66;62.01
13029;BME280;6581;42.662;23.402;2023-07-22T07:02:23;95386.59;;;27.46;61.01
13029;BME280;6581;42.662;23.402;2023-07-22T07:04:51;95375.69;;;27.31;61.32
13029;BME280;6581;42.662;23.402;2023-07-22T07:07:18;95380.56;;;27.51;60.97
13029;BME280;6581;42.662;23.402;2023-07-22T07:09:46;95385.69;;;27.72;61.35
13029;BME280;6581;42.662;23.402;2023-07-22T07:12:13;95380.91;;;27.82;61.90
13029;BME280;6581;42.662;23.402;2023-07-22T07:14:42;95379.81;;;28.03;61.20
13029;BME280;6581;42.662;23.402;2023-07-22T07:17:09;95378.25;;;28.26;58.31
13029;BME280;6581;42.662;23.402;2023-07-22T07:19:36;95379.44;;;29.04;56.91
13029;BME280;6581;42.662;23.402;2023-07-22T07:22:03;95377.56;;;30.79;49.92
13029;BME280;6581;42.662;23.402;2023-07-22T07:24:30;95385.88;;;32.98;42.80
13029;BME280;6581;42.662;23.402;2023-07-22T07:26:59;95383.63;;;32.96;41.04
13029;BME280;6581;42.662;23.402;2023-07-22T07:29:26;95374.47;;;35.29;37.01
13029;BME280;6581;42.662;23.402;2023-07-22T07:31:53;95382.06;;;36.99;33.61
13029;BME280;6581;42.662;23.402;2023-07-22T07:34:20;95373.72;;;37.91;32.07
13029;BME280;6581;42.662;23.402;2023-07-22T07:36:47;95377.72;;;39.56;28.80
13029;BME280;6581;42.662;23.402;2023-07-22T07:39:16;95385.91;;;40.12;28.04
13029;BME280;6581;42.662;23.402;2023-07-22T07:41:43;95379.19;;;40.74;27.02
13029;BME280;6581;42.662;23.402;2023-07-22T07:44:12;95384.78;;;41.75;25.70
13029;BME280;6581;42.662;23.402;2023-07-22T07:46:41;95381.94;;;41.97;24.87
13029;BME280;6581;42.662;23.402;2023-07-22T07:49:08;95382.69;;;42.30;25.11
13029;BME280;6581;42.662;23.402;2023-07-22T07:51:35;95391.13;;;41.60;25.78
13029;BME280;6581;42.662;23.402;2023-07-22T07:54:03;95382.25;;;41.62;25.83
13029;BME280;6581;42.662;23.402;2023-07-22T07:56:32;95376.13;;;42.03;25.13
13029;BME280;6581;42.662;23.402;2023-07-22T07:59:00;95373.13;;;41.69;24.79
13029;BME280;6581;42.662;23.402;2023-07-22T08:01:29;95376.50;;;42.07;24.69
13029;BME280;6581;42.662;23.402;2023-07-22T08:03:56;95374.34;;;42.30;24.42
13029;BME280;6581;42.662;23.402;2023-07-22T08:06:23;95367.81;;;41.95;25.33
13029;BME280;6581;42.662;23.402;2023-07-22T08:08:50;95376.00;;;41.93;24.90
13029;BME280;6581;42.662;23.402;2023-07-22T08:11:17;95370.28;;;41.84;24.95
13029;BME280;6581;42.662;23.402;2023-07-22T08:13:45;95373.94;;;42.34;24.49
13029;BME280;6581;42.662;23.402;2023-07-22T08:16:13;95377.00;;;42.45;23.88
13029;BME280;6581;42.662;23.402;2023-07-22T08:18:42;95381.00;;;42.84;24.29
13029;BME280;6581;42.662;23.402;2023-07-22T08:21:09;95359.16;;;41.84;25.32
13029;BME280;6581;42.662;23.402;2023-07-22T08:23:37;95371.25;;;41.71;24.87
13029;BME280;6581;42.662;23.402;2023-07-22T08:26:04;95368.47;;;41.71;25.16
13029;BME280;6581;42.662;23.402;2023-07-22T08:28:31;95366.13;;;41.60;25.52
13029;BME280;6581;42.662;23.402;2023-07-22T08:30:58;95357.16;;;39.43;27.25
13029;BME280;6581;42.662;23.402;2023-07-22T08:33:26;95351.22;;;38.21;29.37
13029;BME280;6581;42.662;23.402;2023-07-22T08:35:54;95363.16;;;38.15;29.84
13029;BME280;6581;42.662;23.402;2023-07-22T08:38:22;95353.41;;;36.57;32.32
13029;BME280;6581;42.662;23.402;2023-07-22T08:40:50;95352.09;;;35.56;34.00
13029;BME280;6581;42.662;23.402;2023-07-22T08:43:20;95346.00;;;35.21;34.96
13029;BME280;6581;42.662;23.402;2023-07-22T08:45:49;95331.06;;;34.62;36.30
13029;BME280;6581;42.662;23.402;2023-07-22T08:48:18;95323.38;;;34.25;36.76
13029;BME280;6581;42.662;23.402;2023-07-22T08:50:46;95319.56;;;33.98;38.10
13029;BME280;6581;42.662;23.402;2023-07-22T08:53:17;95323.34;;;33.49;39.17
13029;BME280;6581;42.662;23.402;2023-07-22T08:55:46;95314.75;;;33.69;37.98
13029;BME280;6581;42.662;23.402;2023-07-22T08:58:13;95303.22;;;33.76;37.73
13029;BME280;6581;42.662;23.402;2023-07-22T09:00:40;95299.69;;;33.87;37.70
13029;BME280;6581;42.662;23.402;2023-07-22T09:03:08;95298.09;;;33.97;37.68
13029;BME280;6581;42.662;23.402;2023-07-22T09:05:36;95297.72;;;33.29;38.34
13029;BME280;6581;42.662;23.402;2023-07-22T09:08:06;95299.59;;;32.88;38.92
13029;BME280;6581;42.662;23.402;2023-07-22T09:10:36;95290.41;;;32.80;39.62
13029;BME280;6581;42.662;23.402;2023-07-22T09:13:04;95304.38;;;32.71;39.36
13029;BME280;6581;42.662;23.402;2023-07-22T09:15:35;95294.66;;;32.70;39.67
13029;BME280;6581;42.662;23.402;2023-07-22T09:18:03;95297.63;;;32.61;40.21
13029;BME280;6581;42.662;23.402;2023-07-22T09:20:30;95302.16;;;32.36;40.42
13029;BME280;6581;42.662;23.402;2023-07-22T09:22:58;95294.94;;;32.38;41.47
13029;BME280;6581;42.662;23.402;2023-07-22T09:25:27;95292.66;;;32.65;40.34
13029;BME280;6581;42.662;23.402;2023-07-22T09:27:58;95283.88;;;32.88;39.76
13029;BME280;6581;42.662;23.402;2023-07-22T09:30:27;95272.38;;;32.95;40.36
13029;BME280;6581;42.662;23.402;2023-07-22T09:32:55;95291.91;;;32.64;40.05
13029;BME280;6581;42.662;23.402;2023-07-22T09:35:23;95282.19;;;32.52;39.93
13029;BME280;6581;42.662;23.402;2023-07-22T09:37:52;95284.19;;;32.51;40.12
13029;BME280;6581;42.662;23.402;2023-07-22T09:40:21;95280.44;;;32.60;40.53
13029;BME280;6581;42.662;23.402;2023-07-22T09:42:51;95275.97;;;32.63;39.73
13029;BME280;6581;42.662;23.402;2023-07-22T09:45:21;95269.38;;;32.99;39.75
13029;BME280;6581;42.662;23.402;2023-07-22T09:47:50;95269.56;;;33.12;39.19
13029;BME280;6581;42.662;23.402;2023-07-22T09:50:19;95265.06;;;33.20;39.28
13029;BME280;6581;42.662;23.402;2023-07-22T09:52:48;95268.47;;;33.37;37.91
13029;BME280;6581;42.662;23.402;2023-07-22T09:55:17;95257.91;;;33.53;37.74
13029;BME280;6581;42.662;23.402;2023-07-22T09:57:46;95270.31;;;33.65;38.39
13029;BME280;6581;42.662;23.402;2023-07-22T10:00:16;95257.31;;;33.71;37.79
13029;BME280;6581;42.662;23.402;2023-07-22T10:02:48;95259.31;;;33.65;37.53
13029;BME280;6581;42.662;23.402;2023-07-22T10:05:18;95251.44;;;33.50;38.29
13029;BME280;6581;42.662;23.402;2023-07-22T10:07:48;95254.84;;;33.62;35.96
13029;BME280;6581;42.662;23.402;2023-07-22T10:10:17;95250.88;;;33.57;35.86
13029;BME280;6581;42.662;23.402;2023-07-22T10:12:45;95256.09;;;33.61;35.71
13029;BME280;6581;42.662;23.402;2023-07-22T10:15:15;95255.50;;;33.79;35.18
13029;BME280;6581;42.662;23.402;2023-07-22T10:17:44;95252.75;;;33.79;35.83
13029;BME280;6581;42.662;23.402;2023-07-22T10:20:13;95257.47;;;33.84;35.86
13029;BME280;6581;42.662;23.402;2023-07-22T10:22:43;95250.75;;;33.79;36.41
13029;BME280;6581;42.662;23.402;2023-07-22T10:25:11;95252.25;;;33.80;36.53
13029;BME280;6581;42.662;23.402;2023-07-22T10:27:39;95252.22;;;33.86;35.78
13029;BME280;6581;42.662;23.402;2023-07-22T10:30:08;95238.66;;;33.94;35.52
13029;BME280;6581;42.662;23.402;2023-07-22T10:32:37;95245.22;;;33.85;35.15
13029;BME280;6581;42.662;23.402;2023-07-22T10:35:08;95235.91;;;33.94;35.40
13029;BME280;6581;42.662;23.402;2023-07-22T10:37:38;95227.19;;;33.90;35.71
13029;BME280;6581;42.662;23.402;2023-07-22T10:40:23;95228.69;;;33.91;35.79
13029;BME280;6581;42.662;23.402;2023-07-22T10:42:53;95239.72;;;33.85;35.05
13029;BME280;6581;42.662;23.402;2023-07-22T10:45:24;95228.63;;;33.96;35.03
13029;BME280;6581;42.662;23.402;2023-07-22T10:48:07;95223.84;;;34.02;34.18
13029;BME280;6581;42.662;23.402;2023-07-22T10:50:42;95225.97;;;34.20;34.41
13029;BME280;6581;42.662;23.402;2023-07-22T10:53:20;95225.97;;;34.45;34.33
13029;BME280;6581;42.662;23.402;2023-07-22T10:56:10;95217.56;;;34.37;34.51
13029;BME280;6581;42.662;23.402;2023-07-22T10:58:58;95215.53;;;34.62;33.08
13029;BME280;6581;42.662;23.402;2023-07-22T11:01:34;95224.50;;;34.68;31.10
13029;BME280;6581;42.662;23.402;2023-07-22T11:04:13;95218.41;;;34.75;30.32
13029;BME280;6581;42.662;23.402;2023-07-22T11:06:52;95215.44;;;34.73;29.65
13029;BME280;6581;42.662;23.402;2023-07-22T11:09:38;95213.59;;;34.81;29.29
13029;BME280;6581;42.662;23.402;2023-07-22T11:12:09;95220.69;;;34.71;30.37
13029;BME280;6581;42.662;23.402;2023-07-22T11:14:38;95212.91;;;34.75;29.53
13029;BME280;6581;42.662;23.402;2023-07-22T11:17:07;95209.56;;;34.82;29.56
13029;BME280;6581;42.662;23.402;2023-07-22T11:19:34;95213.22;;;34.66;29.77
13029;BME280;6581;42.662;23.402;2023-07-22T11:22:02;95199.31;;;34.58;29.77
13029;BME280;6581;42.662;23.402;2023-07-22T11:24:29;95203.84;;;34.99;29.48
13029;BME280;6581;42.662;23.402;2023-07-22T11:27:03;95193.72;;;35.07;28.80
13029;BME280;6581;42.662;23.402;2023-07-22T11:29:30;95206.75;;;35.06;29.06
13029;BME280;6581;42.662;23.402;2023-07-22T11:31:57;95210.66;;;35.17;29.04
13029;BME280;6581;42.662;23.402;2023-07-22T11:34:24;95194.47;;;35.07;29.36
13029;BME280;6581;42.662;23.402;2023-07-22T11:36:53;95188.47;;;35.28;29.39
13029;BME280;6581;42.662;23.402;2023-07-22T11:39:22;95184.97;;;35.46;28.88
13029;BME280;6581;42.662;23.402;2023-07-22T11:41:50;95182.13;;;35.70;28.83
13029;BME280;6581;42.662;23.402;2023-07-22T11:44:21;95185.44;;;35.63;28.02
13029;BME280;6581;42.662;23.402;2023-07-22T11:46:52;95170.16;;;35.81;28.00
13029;BME280;6581;42.662;23.402;2023-07-22T11:49:27;95180.44;;;35.62;27.53
13029;BME280;6581;42.662;23.402;2023-07-22T11:51:56;95166.09;;;35.69;27.68
13029;BME280;6581;42.662;23.402;2023-07-22T11:54:25;95165.19;;;35.79;27.76
13029;BME280;6581;42.662;23.402;2023-07-22T11:56:53;95163.06;;;35.98;27.67
13029;BME280;6581;42.662;23.402;2023-07-22T11:59:36;95181.38;;;35.70;28.12
13029;BME280;6581;42.662;23.402;2023-07-22T12:02:04;95165.78;;;35.72;28.42
13029;BME280;6581;42.662;23.402;2023-07-22T12:04:33;95175.25;;;35.90;27.60
13029;BME280;6581;42.662;23.402;2023-07-22T12:07:02;95181.72;;;35.79;28.26
13029;BME280;6581;42.662;23.402;2023-07-22T12:09:30;95172.41;;;35.64;28.69
13029;BME280;6581;42.662;23.402;2023-07-22T12:11:58;95165.63;;;35.96;28.21
13029;BME280;6581;42.662;23.402;2023-07-22T12:14:32;95169.28;;;36.18;28.07
13029;BME280;6581;42.662;23.402;2023-07-22T12:17:03;95166.63;;;36.12;27.95
13029;BME280;6581;42.662;23.402;2023-07-22T12:19:35;95163.41;;;36.08;28.23
13029;BME280;6581;42.662;23.402;2023-07-22T12:22:03;95163.09;;;36.12;27.86
13029;BME280;6581;42.662;23.402;2023-07-22T12:24:32;95152.44;;;36.34;28.14
13029;BME280;6581;42.662;23.402;2023-07-22T12:27:01;95157.63;;;36.38;27.86
13029;BME280;6581;42.662;23.402;2023-07-22T12:29:28;95155.75;;;35.88;28.14
13029;BME280;6581;42.662;23.402;2023-07-22T12:31:55;95147.69;;;35.90;28.86
13029;BME280;6581;42.662;23.402;2023-07-22T12:34:24;95161.09;;;36.12;28.61
13029;BME280;6581;42.662;23.402;2023-07-22T12:36:51;95149.78;;;36.29;28.08
13029;BME280;6581;42.662;23.402;2023-07-22T12:39:20;95153.25;;;36.16;27.99
13029;BME280;6581;42.662;23.402;2023-07-22T12:41:47;95140.09;;;36.09;27.54
13029;BME280;6581;42.662;23.402;2023-07-22T12:44:14;95147.44;;;36.20;27.20
13029;BME280;6581;42.662;23.402;2023-07-22T12:46:41;95144.88;;;36.35;27.65
13029;BME280;6581;42.662;23.402;2023-07-22T12:49:08;95128.75;;;36.13;28.58
13029;BME280;6581;42.662;23.402;2023-07-22T12:51:39;95126.88;;;36.47;28.15
13029;BME280;6581;42.662;23.402;2023-07-22T12:54:07;95133.75;;;36.40;28.40
13029;BME280;6581;42.662;23.402;2023-07-22T12:56:34;95126.22;;;36.41;28.50
13029;BME280;6581;42.662;23.402;2023-07-22T12:59:01;95136.09;;;36.36;28.40
13029;BME280;6581;42.662;23.402;2023-07-22T13:01:28;95119.56;;;36.23;28.77
13029;BME280;6581;42.662;23.402;2023-07-22T13:03:55;95123.03;;;36.50;28.44
13029;BME280;6581;42.662;23.402;2023-07-22T13:06:22;95115.53;;;36.24;28.32